createdAt,value
2023-03-16T00:00:50.158Z,97106.19
2023-03-16T00:03:22.624Z,97108.16
2023-03-16T00:05:54.777Z,97111.34
2023-03-16T00:08:27.239Z,97106.81
2023-03-16T00:10:59.002Z,97106.97
2023-03-16T00:13:31.050Z,97121.38
2023-03-16T00:16:03.985Z,97115.81
2023-03-16T00:18:35.611Z,97112.47
2023-03-16T00:21:07.227Z,97115.59
2023-03-16T00:23:38.851Z,97120.03
2023-03-16T00:26:10.508Z,97111.66
2023-03-16T00:28:42.059Z,97112.28
2023-03-16T00:31:14.984Z,97116.59
2023-03-16T00:33:46.871Z,97121.41
2023-03-16T00:36:18.479Z,97126.13
2023-03-16T00:38:50.043Z,97129.38
2023-03-16T00:41:21.937Z,97128.22
2023-03-16T00:43:53.628Z,97123.34
2023-03-16T00:46:25.211Z,97128.59
2023-03-16T00:48:56.837Z,97122.91
2023-03-16T00:51:28.523Z,97126.34
2023-03-16T00:54:00.108Z,97115.91
2023-03-16T00:56:31.668Z,97123.28
2023-03-16T00:59:03.309Z,97119.13
2023-03-16T01:01:35.002Z,97106.25
2023-03-16T01:04:06.660Z,97118.13
2023-03-16T01:06:39.913Z,97115.50
2023-03-16T01:09:11.935Z,97113.28
2023-03-16T01:11:43.503Z,97112.03
2023-03-16T01:14:15.083Z,97113.28
2023-03-16T01:16:47.062Z,97105.66
2023-03-16T01:19:18.699Z,97100.88
2023-03-16T01:21:50.287Z,97111.00
2023-03-16T01:24:22.134Z,97105.25
2023-03-16T01:26:54.000Z,97109.50
2023-03-16T01:29:25.893Z,97102.19
2023-03-16T01:32:00.046Z,97097.53
2023-03-16T01:34:32.479Z,97094.00
2023-03-16T01:37:04.634Z,97097.28
2023-03-16T01:39:56.447Z,97091.31
2023-03-16T01:42:28.190Z,97085.72
2023-03-16T01:45:01.159Z,97077.50
2023-03-16T01:47:37.576Z,97065.50
2023-03-16T01:50:10.894Z,97071.16
2023-03-16T01:52:45.221Z,97069.78
2023-03-16T01:55:18.592Z,97063.94
2023-03-16T01:57:50.286Z,97064.00
2023-03-16T02:00:22.186Z,97056.88
2023-03-16T02:03:16.579Z,97055.34
2023-03-16T02:06:12.642Z,97053.03
2023-03-16T02:08:50.565Z,97052.81
2023-03-16T02:11:23.423Z,97054.47
2023-03-16T02:14:12.001Z,97053.31
2023-03-16T02:16:43.711Z,97049.28
2023-03-16T02:19:29.353Z,97047.53
2023-03-16T02:22:05.788Z,97044.16
2023-03-16T02:24:38.467Z,97037.28
2023-03-16T02:27:25.893Z,97038.00
2023-03-16T02:30:08.120Z,97043.91
2023-03-16T02:32:50.560Z,97033.63
2023-03-16T02:35:22.815Z,97049.41
2023-03-16T02:37:55.330Z,97051.66
2023-03-16T02:40:32.355Z,97046.53
2023-03-16T02:43:18.537Z,97051.75
2023-03-16T02:46:02.540Z,97053.34
2023-03-16T02:49:09.969Z,97045.09
2023-03-16T02:51:45.332Z,97042.56
2023-03-16T02:54:17.577Z,97043.84
2023-03-16T02:56:49.193Z,97047.47
2023-03-16T02:59:21.481Z,97039.56
2023-03-16T03:01:53.452Z,97040.75
2023-03-16T03:04:25.120Z,97047.78
2023-03-16T03:06:56.680Z,97042.59
2023-03-16T03:09:28.322Z,97046.72
2023-03-16T03:12:00.317Z,97052.16
2023-03-16T03:14:31.913Z,97044.72
2023-03-16T03:17:07.895Z,97050.56
2023-03-16T03:19:39.545Z,97047.59
2023-03-16T03:22:11.296Z,97044.75
2023-03-16T03:24:43.066Z,97053.59
2023-03-16T03:27:14.808Z,97052.00
2023-03-16T03:29:47.463Z,97043.59
2023-03-16T03:32:19.134Z,97054.78
2023-03-16T03:34:51.271Z,97052.00
2023-03-16T03:37:22.875Z,97045.34
2023-03-16T03:39:54.634Z,97045.38
2023-03-16T03:42:26.448Z,97046.84
2023-03-16T03:44:58.206Z,97057.84
2023-03-16T03:47:30.907Z,97046.16
2023-03-16T03:50:03.481Z,97048.25
2023-03-16T03:52:38.235Z,97045.81
2023-03-16T03:55:10.770Z,97049.41
2023-03-16T03:57:42.387Z,97051.75
2023-03-16T04:00:14.420Z,97061.44
2023-03-16T04:02:48.090Z,97063.03
2023-03-16T04:05:29.703Z,97060.50
2023-03-16T04:08:01.365Z,97060.38
2023-03-16T04:10:33.177Z,97059.50
2023-03-16T04:13:05.359Z,97054.59
2023-03-16T04:15:38.583Z,97062.41
2023-03-16T04:18:15.796Z,97059.53
2023-03-16T04:20:48.394Z,97059.44
2023-03-16T04:23:23.440Z,97057.34
2023-03-16T04:25:55.655Z,97057.75
2023-03-16T04:28:27.859Z,97055.63
2023-03-16T04:31:05.213Z,97071.16
2023-03-16T04:33:41.002Z,97072.53
2023-03-16T04:36:12.698Z,97067.75
2023-03-16T04:38:45.100Z,97071.00
2023-03-16T04:41:18.392Z,97071.91
2023-03-16T04:43:59.007Z,97069.22
2023-03-16T04:46:30.886Z,97057.84
2023-03-16T04:49:06.152Z,97063.09
2023-03-16T04:51:37.995Z,97063.69
2023-03-16T04:54:13.230Z,97069.94
2023-03-16T04:56:47.643Z,97067.47
2023-03-16T04:59:32.401Z,97065.47
2023-03-16T05:02:18.682Z,97059.44
2023-03-16T05:04:50.395Z,97055.25
2023-03-16T05:07:22.660Z,97052.72
2023-03-16T05:09:58.101Z,97057.56
2023-03-16T05:12:29.898Z,97055.41
2023-03-16T05:15:06.872Z,97068.66
2023-03-16T05:17:44.528Z,97064.09
2023-03-16T05:20:18.271Z,97059.47
2023-03-16T05:22:55.609Z,97055.41
2023-03-16T05:25:39.002Z,97057.16
2023-03-16T05:28:12.014Z,97059.56
2023-03-16T05:30:51.951Z,97055.38
2023-03-16T05:33:29.341Z,97045.72
2023-03-16T05:36:07.888Z,97053.56
2023-03-16T05:38:41.025Z,97055.09
2023-03-16T05:41:15.604Z,97047.25
2023-03-16T05:44:04.841Z,97050.81
2023-03-16T05:46:51.191Z,97053.06
2023-03-16T05:49:22.839Z,97055.53
2023-03-16T05:51:54.906Z,97059.97
2023-03-16T05:54:27.182Z,97060.28
2023-03-16T05:56:58.965Z,97055.63
2023-03-16T05:59:31.560Z,97065.22
2023-03-16T06:02:03.571Z,97064.38
2023-03-16T06:04:36.209Z,97071.22
2023-03-16T06:07:08.148Z,97059.38
2023-03-16T06:09:39.757Z,97047.06
2023-03-16T06:12:16.797Z,97036.53
2023-03-16T06:14:49.044Z,97049.19
2023-03-16T06:17:20.760Z,97050.75
2023-03-16T06:19:52.648Z,97050.50
2023-03-16T06:22:24.435Z,97056.66
2023-03-16T06:24:56.154Z,97055.00
2023-03-16T06:27:27.947Z,97046.38
2023-03-16T06:30:14.897Z,97055.28
2023-03-16T06:32:46.835Z,97060.91
2023-03-16T06:35:19.572Z,97067.72
2023-03-16T06:38:04.462Z,97074.44
2023-03-16T06:40:54.726Z,97073.72
2023-03-16T06:43:27.912Z,97069.72
2023-03-16T06:45:59.977Z,97052.22
2023-03-16T06:48:31.852Z,97044.50
2023-03-16T06:51:03.797Z,97037.00
2023-03-16T06:53:35.980Z,97039.53
2023-03-16T06:56:07.863Z,97046.22
2023-03-16T06:58:44.325Z,97059.38
2023-03-16T07:01:16.072Z,97055.25
2023-03-16T07:03:47.825Z,97058.34
2023-03-16T07:06:25.057Z,97059.63
2023-03-16T07:08:56.668Z,97060.06
2023-03-16T07:11:29.077Z,97066.66
2023-03-16T07:14:03.190Z,97069.88
2023-03-16T07:16:36.924Z,97058.41
2023-03-16T07:19:11.285Z,97044.59
2023-03-16T07:21:42.944Z,97040.31
2023-03-16T07:24:19.691Z,97036.22
2023-03-16T07:26:51.319Z,97040.06
2023-03-16T07:29:33.086Z,97047.00
2023-03-16T07:32:07.655Z,97045.78
2023-03-16T07:34:42.914Z,97048.66
2023-03-16T07:37:17.136Z,97049.28
2023-03-16T07:39:50.318Z,97041.06
2023-03-16T07:42:23.675Z,97028.41
2023-03-16T07:45:09.827Z,97029.09
2023-03-16T07:47:41.648Z,97026.25
2023-03-16T07:50:39.144Z,97034.94
2023-03-16T07:53:12.311Z,97039.34
2023-03-16T07:55:46.608Z,97027.78
2023-03-16T07:58:18.519Z,97026.19
2023-03-16T08:00:51.849Z,97030.47
2023-03-16T08:03:25.613Z,97031.00
2023-03-16T08:05:59.404Z,97037.94
2023-03-16T08:08:32.321Z,97027.63
2023-03-16T08:11:04.087Z,97023.13
2023-03-16T08:13:46.921Z,97037.22
2023-03-16T08:16:21.947Z,97040.19
2023-03-16T08:18:57.980Z,97036.06
2023-03-16T08:21:29.887Z,97045.41
2023-03-16T08:24:01.548Z,97051.34
2023-03-16T08:26:33.695Z,97050.25
2023-03-16T08:29:05.500Z,97045.22
2023-03-16T08:31:41.096Z,97044.91
2023-03-16T08:34:19.349Z,97042.72
2023-03-16T08:36:50.992Z,97045.34
2023-03-16T08:39:22.707Z,97044.63
2023-03-16T08:41:54.914Z,97040.72
2023-03-16T08:44:33.917Z,97043.38
2023-03-16T08:47:05.766Z,97041.09
2023-03-16T08:49:39.540Z,97040.59
2023-03-16T08:52:16.507Z,97031.22
2023-03-16T08:55:01.903Z,97039.47
2023-03-16T08:57:34.774Z,97026.78
2023-03-16T09:00:08.840Z,97029.31
2023-03-16T09:02:42.514Z,97022.28
2023-03-16T09:05:16.263Z,97031.09
2023-03-16T09:07:49.012Z,97033.41
2023-03-16T09:10:21.653Z,97043.84
2023-03-16T09:12:53.884Z,97041.19
2023-03-16T09:15:25.439Z,97033.94
2023-03-16T09:17:57.048Z,97036.81
2023-03-16T09:20:30.173Z,97032.16
2023-03-16T09:23:01.956Z,97032.63
2023-03-16T09:25:33.577Z,97022.59
2023-03-16T09:28:05.887Z,97012.69
2023-03-16T09:30:37.537Z,97011.03
2023-03-16T09:33:09.288Z,97007.69
2023-03-16T09:35:40.961Z,97014.63
2023-03-16T09:38:12.563Z,97016.38
2023-03-16T09:40:47.722Z,97007.28
2023-03-16T09:43:45.358Z,96998.19
2023-03-16T09:46:36.295Z,97002.44
2023-03-16T09:49:15.352Z,96995.19
2023-03-16T09:52:12.428Z,96988.44
2023-03-16T09:55:11.881Z,96989.00
2023-03-16T09:57:45.831Z,96985.19
2023-03-16T10:00:28.405Z,96982.22
2023-03-16T10:03:28.244Z,96982.00
2023-03-16T10:06:03.152Z,96977.53
2023-03-16T10:08:51.175Z,96985.63
2023-03-16T10:11:38.068Z,96982.56
2023-03-16T10:14:09.633Z,96982.13
2023-03-16T10:16:49.768Z,96973.31
2023-03-16T10:19:49.567Z,96973.00
2023-03-16T10:22:37.239Z,96969.22
2023-03-16T10:25:27.277Z,96970.75
2023-03-16T10:27:59.119Z,96965.47
2023-03-16T10:30:36.651Z,96957.22
2023-03-16T10:33:29.683Z,96966.88
2023-03-16T10:36:25.611Z,96974.19
2023-03-16T10:39:01.770Z,96971.09
2023-03-16T10:41:36.506Z,96961.88
2023-03-16T10:44:11.220Z,96966.53
2023-03-16T10:46:58.430Z,96973.31
2023-03-16T10:49:38.646Z,96981.78
2023-03-16T10:52:34.857Z,96984.59
2023-03-16T10:55:27.250Z,96985.63
2023-03-16T10:57:59.120Z,96985.91
2023-03-16T11:00:37.426Z,96992.44
2023-03-16T11:03:30.359Z,96981.44
2023-03-16T11:06:05.643Z,96980.28
2023-03-16T11:08:39.174Z,96976.44
2023-03-16T11:11:17.112Z,96977.91
2023-03-16T11:13:49.243Z,96975.25
2023-03-16T11:16:27.940Z,96976.28
2023-03-16T11:19:25.713Z,96982.75
2023-03-16T11:22:05.635Z,96982.09
2023-03-16T11:24:46.388Z,96974.06
2023-03-16T11:27:33.622Z,96979.13
2023-03-16T11:30:26.757Z,96974.75
2023-03-16T11:32:58.549Z,96978.69
2023-03-16T11:35:38.433Z,96979.22
2023-03-16T11:38:37.521Z,96972.25
2023-03-16T11:41:13.342Z,96979.59
2023-03-16T11:44:00.293Z,96983.28
2023-03-16T11:46:42.279Z,96979.47
2023-03-16T11:49:51.554Z,96984.09
2023-03-16T11:52:39.932Z,96969.94
2023-03-16T11:55:34.012Z,96962.94
2023-03-16T11:58:30.978Z,96961.59
2023-03-16T12:01:17.542Z,96964.56
2023-03-16T12:04:12.274Z,96965.66
2023-03-16T12:06:55.299Z,96955.44
2023-03-16T12:10:05.544Z,96953.28
2023-03-16T12:12:55.617Z,96953.22
2023-03-16T12:16:46.283Z,96947.09
2023-03-16T12:19:45.624Z,96949.56
2023-03-16T12:22:20.829Z,96945.59
2023-03-16T12:24:52.835Z,96942.59
2023-03-16T12:27:31.672Z,96942.53
2023-03-16T12:30:40.412Z,96938.06
2023-03-16T12:33:33.430Z,96936.56
2023-03-16T12:36:23.225Z,96934.28
2023-03-16T12:39:07.122Z,96930.81
2023-03-16T12:41:56.161Z,96930.16
2023-03-16T12:44:56.790Z,96928.81
2023-03-16T12:47:32.430Z,96918.25
2023-03-16T12:50:11.344Z,96919.66
2023-03-16T12:52:46.821Z,96916.09
2023-03-16T12:55:20.675Z,96908.63
2023-03-16T12:58:04.939Z,96900.06
2023-03-16T13:00:40.335Z,96893.88
2023-03-16T13:03:19.895Z,96902.25
2023-03-16T13:05:56.034Z,96899.91
2023-03-16T13:08:28.489Z,96888.13
2023-03-16T13:11:11.890Z,96885.91
2023-03-16T13:14:03.726Z,96874.78
2023-03-16T13:16:37.358Z,96871.81
2023-03-16T13:19:27.556Z,96868.44
2023-03-16T13:22:24.153Z,96868.88
2023-03-16T13:25:13.758Z,96868.66
2023-03-16T13:27:53.503Z,96878.03
2023-03-16T13:30:34.430Z,96877.03
2023-03-16T13:33:19.659Z,96873.75
2023-03-16T13:35:53.808Z,96860.47
2023-03-16T13:38:27.882Z,96857.00
2023-03-16T13:41:09.158Z,96854.84
2023-03-16T13:43:44.174Z,96847.53
2023-03-16T13:46:16.828Z,96850.88
2023-03-16T13:48:49.240Z,96860.47
2023-03-16T13:51:21.882Z,96851.13
2023-03-16T13:53:53.681Z,96858.72
2023-03-16T13:56:27.378Z,96863.88
2023-03-16T13:58:59.496Z,96865.91
2023-03-16T14:01:32.020Z,96864.09
2023-03-16T14:04:11.576Z,96853.59
2023-03-16T14:06:59.304Z,96846.13
2023-03-16T14:09:35.162Z,96853.94
2023-03-16T14:12:07.027Z,96854.88
2023-03-16T14:14:40.259Z,96855.81
2023-03-16T14:17:16.118Z,96847.59
2023-03-16T14:20:00.728Z,96850.97
2023-03-16T14:22:36.880Z,96849.41
2023-03-16T14:25:20.478Z,96856.84
2023-03-16T14:27:59.599Z,96859.88
2023-03-16T14:30:31.548Z,96855.06
2023-03-16T14:33:27.955Z,96857.50
2023-03-16T14:36:11.373Z,96849.63
2023-03-16T14:38:48.464Z,96847.97
2023-03-16T14:41:30.741Z,96847.91
2023-03-16T14:44:02.578Z,96848.63
2023-03-16T14:46:39.216Z,96844.84
2023-03-16T14:49:22.883Z,96836.81
2023-03-16T14:52:02.728Z,96840.66
2023-03-16T14:54:34.662Z,96835.13
2023-03-16T14:57:06.810Z,96832.09
2023-03-16T14:59:38.673Z,96832.75
2023-03-16T15:02:23.044Z,96837.53
2023-03-16T15:04:57.069Z,96825.97
2023-03-16T15:07:32.723Z,96826.84
2023-03-16T15:10:22.350Z,96831.19
2023-03-16T15:12:54.024Z,96824.31
2023-03-16T15:15:25.731Z,96819.84
2023-03-16T15:17:57.360Z,96824.72
2023-03-16T15:20:34.577Z,96800.84
2023-03-16T15:23:06.268Z,96791.97
2023-03-16T15:25:41.250Z,96782.63
2023-03-16T15:28:24.720Z,96787.25
2023-03-16T15:30:58.687Z,96792.41
2023-03-16T15:33:31.072Z,96793.88
2023-03-16T15:36:14.580Z,96796.63
2023-03-16T15:38:49.214Z,96795.25
2023-03-16T15:41:22.603Z,96794.63
2023-03-16T15:43:54.241Z,96801.44
2023-03-16T15:46:26.356Z,96798.97
2023-03-16T15:48:57.996Z,96788.53
2023-03-16T15:51:31.154Z,96786.53
2023-03-16T15:54:06.635Z,96783.81
2023-03-16T15:56:53.297Z,96783.53
2023-03-16T15:59:31.413Z,96775.63
2023-03-16T16:02:03.396Z,96772.16
2023-03-16T16:04:35.034Z,96767.03
2023-03-16T16:07:11.253Z,96766.59
2023-03-16T16:09:42.927Z,96765.19
2023-03-16T16:12:16.419Z,96760.13
2023-03-16T16:14:48.084Z,96757.56
2023-03-16T16:17:21.156Z,96757.75
2023-03-16T16:19:54.690Z,96754.63
2023-03-16T16:22:26.332Z,96754.91
2023-03-16T16:24:57.899Z,96755.06
2023-03-16T16:27:29.574Z,96756.63
2023-03-16T16:30:01.194Z,96755.06
2023-03-16T16:32:32.891Z,96753.50
2023-03-16T16:35:13.412Z,96756.34
2023-03-16T16:37:45.467Z,96745.41
2023-03-16T16:40:23.452Z,96748.06
2023-03-16T16:42:55.227Z,96749.94
2023-03-16T16:45:27.653Z,96749.34
2023-03-16T16:47:59.492Z,96749.84
2023-03-16T16:50:31.065Z,96755.13
2023-03-16T16:53:16.192Z,96761.44
2023-03-16T16:55:47.922Z,96742.22
2023-03-16T16:58:24.617Z,96741.00
2023-03-16T17:00:58.320Z,96741.56
2023-03-16T17:03:30.430Z,96740.50
2023-03-16T17:06:02.355Z,96746.81
2023-03-16T17:08:34.098Z,96742.25
2023-03-16T17:11:05.890Z,96737.94
2023-03-16T17:13:40.465Z,96735.25
2023-03-16T17:16:16.777Z,96739.22
2023-03-16T17:18:49.528Z,96737.66
2023-03-16T17:21:24.186Z,96743.19
2023-03-16T17:23:56.216Z,96747.00
2023-03-16T17:26:39.816Z,96746.72
2023-03-16T17:29:22.078Z,96741.81
2023-03-16T17:31:54.072Z,96745.94
2023-03-16T17:34:29.062Z,96741.31
2023-03-16T17:37:00.697Z,96742.59
2023-03-16T17:39:33.679Z,96742.59
2023-03-16T17:42:11.741Z,96746.34
2023-03-16T17:44:47.199Z,96742.72
2023-03-16T17:47:23.495Z,96746.59
2023-03-16T17:49:55.369Z,96738.16
2023-03-16T17:52:29.307Z,96735.09
2023-03-16T17:55:00.970Z,96738.31
2023-03-16T17:57:33.918Z,96742.88
2023-03-16T18:00:20.523Z,96738.72
2023-03-16T18:03:12.342Z,96742.16
2023-03-16T18:05:45.205Z,96747.78
2023-03-16T18:08:22.386Z,96745.94
2023-03-16T18:11:00.910Z,96739.06
2023-03-16T18:13:36.472Z,96741.22
2023-03-16T18:16:12.886Z,96737.75
2023-03-16T18:18:44.634Z,96743.06
2023-03-16T18:21:22.183Z,96743.66
2023-03-16T18:23:54.163Z,96740.03
2023-03-16T18:26:25.884Z,96735.00
2023-03-16T18:28:57.503Z,96743.72
2023-03-16T18:31:29.645Z,96741.38
2023-03-16T18:34:05.738Z,96751.22
2023-03-16T18:36:38.073Z,96749.09
2023-03-16T18:39:19.323Z,96749.19
2023-03-16T18:41:50.985Z,96747.47
2023-03-16T18:44:25.172Z,96744.72
2023-03-16T18:47:02.631Z,96743.91
2023-03-16T18:49:36.638Z,96750.56
2023-03-16T18:52:19.520Z,96757.91
2023-03-16T18:54:51.872Z,96749.84
2023-03-16T18:57:27.236Z,96756.16
2023-03-16T18:59:58.845Z,96752.84
2023-03-16T19:02:38.928Z,96756.84
2023-03-16T19:05:20.710Z,96752.66
2023-03-16T19:07:52.989Z,96759.63
2023-03-16T19:10:34.671Z,96768.56
2023-03-16T19:13:16.260Z,96759.72
2023-03-16T19:15:49.691Z,96754.06
2023-03-16T19:18:21.340Z,96759.78
2023-03-16T19:20:55.112Z,96760.91
2023-03-16T19:23:35.135Z,96756.88
2023-03-16T19:26:07.835Z,96762.13
2023-03-16T19:28:43.757Z,96756.19
2023-03-16T19:31:26.641Z,96761.94
2023-03-16T19:33:58.565Z,96765.38
2023-03-16T19:36:32.324Z,96765.22
2023-03-16T19:39:04.273Z,96766.16
2023-03-16T19:41:38.061Z,96761.59
2023-03-16T19:44:26.762Z,96757.97
2023-03-16T19:46:58.625Z,96766.75
2023-03-16T19:49:30.709Z,96766.28
2023-03-16T19:52:02.544Z,96763.16
2023-03-16T19:54:34.253Z,96757.56
2023-03-16T19:57:16.837Z,96761.84
2023-03-16T19:59:55.148Z,96767.16
2023-03-16T20:02:35.489Z,96765.41
2023-03-16T20:05:07.839Z,96758.16
2023-03-16T20:07:39.678Z,96759.78
2023-03-16T20:10:22.047Z,96753.06
2023-03-16T20:13:00.194Z,96758.00
2023-03-16T20:15:33.466Z,96750.53
2023-03-16T20:18:12.411Z,96754.63
2023-03-16T20:20:44.549Z,96757.31
2023-03-16T20:23:29.007Z,96758.25
2023-03-16T20:26:02.652Z,96754.41
2023-03-16T20:28:37.059Z,96754.59
2023-03-16T20:31:18.720Z,96763.13
2023-03-16T20:33:52.482Z,96756.22
2023-03-16T20:36:26.162Z,96754.97
2023-03-16T20:38:58.133Z,96759.69
2023-03-16T20:41:31.518Z,96762.75
2023-03-16T20:44:03.550Z,96763.78
2023-03-16T20:46:35.590Z,96753.75
2023-03-16T20:49:36.480Z,96758.28
2023-03-16T20:52:28.253Z,96754.19
2023-03-16T20:55:01.213Z,96753.28
2023-03-16T20:57:33.090Z,96750.19
2023-03-16T21:00:17.641Z,96754.41
2023-03-16T21:02:49.350Z,96754.13
2023-03-16T21:05:22.041Z,96752.81
2023-03-16T21:07:54.167Z,96748.16
2023-03-16T21:10:25.854Z,96749.06
2023-03-16T21:12:57.811Z,96754.16
2023-03-16T21:15:31.825Z,96753.50
2023-03-16T21:18:06.691Z,96751.94
2023-03-16T21:20:38.383Z,96751.41
2023-03-16T21:23:15.070Z,96757.06
2023-03-16T21:25:56.555Z,96749.94
2023-03-16T21:28:32.990Z,96751.09
2023-03-16T21:31:05.222Z,96747.19
2023-03-16T21:33:40.349Z,96750.53
2023-03-16T21:36:21.940Z,96752.22
2023-03-16T21:38:55.021Z,96754.97
2023-03-16T21:41:26.600Z,96752.63
2023-03-16T21:43:58.187Z,96747.44
2023-03-16T21:46:30.143Z,96741.34
2023-03-16T21:49:03.660Z,96739.22
2023-03-16T21:51:36.327Z,96744.44
2023-03-16T21:54:13.269Z,96740.00
2023-03-16T21:56:46.126Z,96736.16
2023-03-16T21:59:17.712Z,96727.75
2023-03-16T22:02:01.161Z,96724.38
2023-03-16T22:04:33.817Z,96722.63
2023-03-16T22:07:11.086Z,96727.13
2023-03-16T22:09:43.574Z,96733.22
2023-03-16T22:12:15.433Z,96737.94
2023-03-16T22:14:46.980Z,96726.16
2023-03-16T22:17:22.519Z,96726.13
2023-03-16T22:19:54.163Z,96723.38
2023-03-16T22:22:33.451Z,96729.63
2023-03-16T22:25:14.864Z,96726.47
2023-03-16T22:27:46.525Z,96722.88
2023-03-16T22:30:25.698Z,96725.75
2023-03-16T22:33:00.584Z,96718.91
2023-03-16T22:35:38.709Z,96729.34
2023-03-16T22:38:14.334Z,96713.38
2023-03-16T22:40:45.912Z,96730.78
2023-03-16T22:43:22.558Z,96734.09
2023-03-16T22:45:54.132Z,96736.38
2023-03-16T22:48:28.751Z,96729.47
2023-03-16T22:51:04.346Z,96731.84
2023-03-16T22:53:41.226Z,96732.25
2023-03-16T22:56:12.965Z,96733.69
2023-03-16T22:59:01.983Z,96728.75
2023-03-16T23:01:39.942Z,96727.00
2023-03-16T23:04:17.362Z,96728.91
2023-03-16T23:06:52.371Z,96720.88
2023-03-16T23:09:25.267Z,96724.13
2023-03-16T23:11:57.332Z,96720.91
2023-03-16T23:14:34.666Z,96721.00
2023-03-16T23:17:24.867Z,96719.78
2023-03-16T23:19:56.512Z,96720.81
2023-03-16T23:22:28.252Z,96722.00
2023-03-16T23:25:00.205Z,96717.34
2023-03-16T23:27:31.973Z,96726.16
2023-03-16T23:30:18.747Z,96718.72
2023-03-16T23:32:53.248Z,96725.59
2023-03-16T23:35:28.259Z,96717.28
2023-03-16T23:38:00.426Z,96716.97
2023-03-16T23:40:36.868Z,96709.63
2023-03-16T23:43:09.008Z,96723.50
2023-03-16T23:45:44.989Z,96711.94
2023-03-16T23:48:20.572Z,96713.81
2023-03-16T23:50:55.553Z,96704.34
2023-03-16T23:53:27.232Z,96703.56
2023-03-16T23:55:59.125Z,96710.25
2023-03-16T23:58:31.241Z,96710.53
